createdAt,value
2019-05-11T00:00:31.896Z,85.37
2019-05-11T00:03:02.470Z,85.20
2019-05-11T00:05:33.269Z,85.35
2019-05-11T00:08:04.028Z,85.64
2019-05-11T00:10:34.691Z,85.67
2019-05-11T00:13:05.559Z,85.39
2019-05-11T00:15:36.300Z,85.29
2019-05-11T00:18:06.923Z,85.18
2019-05-11T00:20:37.723Z,85.25
2019-05-11T00:23:08.476Z,85.23
2019-05-11T00:25:39.032Z,85.18
2019-05-11T00:28:09.657Z,85.05
2019-05-11T00:30:40.517Z,85.28
2019-05-11T00:33:12.020Z,85.44
2019-05-11T00:35:44.224Z,85.28
2019-05-11T00:38:15.442Z,85.35
2019-05-11T00:40:45.982Z,85.43
2019-05-11T00:43:16.609Z,85.27
2019-05-11T00:45:48.214Z,85.07
2019-05-11T00:48:18.797Z,84.65
2019-05-11T00:50:50.729Z,84.42
2019-05-11T00:53:21.381Z,84.23
2019-05-11T00:55:52.064Z,83.48
2019-05-11T00:58:23.150Z,82.29
2019-05-11T01:00:55.245Z,81.87
2019-05-11T01:03:25.900Z,81.69
2019-05-11T01:05:56.600Z,81.60
2019-05-11T01:08:27.231Z,81.69
2019-05-11T01:10:57.995Z,81.71
2019-05-11T01:13:29.115Z,81.78
2019-05-11T01:16:01.083Z,81.45
2019-05-11T01:18:31.885Z,81.36
2019-05-11T01:21:04.989Z,81.37
2019-05-11T01:23:35.620Z,80.99
2019-05-11T01:26:06.191Z,80.68
2019-05-11T01:28:37.332Z,81.26
2019-05-11T01:31:07.947Z,81.82
2019-05-11T01:33:38.675Z,82.13
2019-05-11T01:36:09.537Z,82.01
2019-05-11T01:38:40.321Z,81.90
2019-05-11T01:41:11.069Z,82.03
2019-05-11T01:43:41.806Z,81.93
2019-05-11T01:46:12.507Z,82.09
2019-05-11T01:48:43.105Z,82.04
2019-05-11T01:51:13.817Z,82.14
2019-05-11T01:53:47.930Z,82.01
2019-05-11T01:56:17.031Z,82.27
2019-05-11T01:58:48.408Z,82.39
2019-05-11T02:01:19.294Z,82.36
2019-05-11T02:03:50.031Z,82.49
2019-05-11T02:06:21.887Z,82.53
2019-05-11T02:08:52.759Z,81.96
2019-05-11T02:11:23.720Z,81.82
2019-05-11T02:13:54.500Z,81.42
2019-05-11T02:16:25.264Z,81.16
2019-05-11T02:18:55.940Z,80.77
2019-05-11T02:21:26.485Z,80.56
2019-05-11T02:23:57.216Z,80.46
2019-05-11T02:26:27.994Z,80.17
2019-05-11T02:28:58.756Z,80.16
2019-05-11T02:31:29.407Z,80.04
2019-05-11T02:33:59.951Z,79.87
2019-05-11T02:36:30.480Z,79.94
2019-05-11T02:39:02.250Z,79.70
2019-05-11T02:41:36.417Z,79.57
2019-05-11T02:44:05.625Z,79.59
2019-05-11T02:46:36.324Z,78.80
2019-05-11T02:49:07.081Z,78.98
2019-05-11T02:51:38.768Z,78.93
2019-05-11T02:54:11.183Z,78.53
2019-05-11T02:56:41.930Z,78.69
2019-05-11T02:59:12.457Z,78.80
2019-05-11T03:02:03.213Z,78.54
2019-05-11T03:04:34.017Z,78.65
2019-05-11T03:07:05.035Z,78.04
2019-05-11T03:09:36.978Z,77.88
2019-05-11T03:12:07.752Z,77.67
2019-05-11T03:14:38.457Z,77.31
2019-05-11T03:17:22.023Z,77.05
2019-05-11T03:19:52.824Z,76.94
2019-05-11T03:22:23.939Z,76.64
2019-05-11T03:24:54.804Z,76.31
2019-05-11T03:27:25.337Z,76.11
2019-05-11T03:30:00.774Z,76.05
2019-05-11T03:32:30.392Z,76.09
2019-05-11T03:35:01.115Z,76.25
2019-05-11T03:37:31.765Z,75.91
2019-05-11T03:40:02.523Z,75.92
2019-05-11T03:42:33.450Z,75.83
2019-05-11T03:45:04.074Z,75.76
2019-05-11T03:47:35.044Z,75.39
2019-05-11T03:50:07.900Z,75.08
2019-05-11T03:52:38.779Z,74.93
2019-05-11T03:55:09.495Z,75.11
2019-05-11T03:57:40.161Z,75.18
2019-05-11T04:00:11.841Z,75.26
2019-05-11T04:02:42.618Z,75.31
2019-05-11T04:05:13.588Z,75.37
2019-05-11T04:07:44.437Z,75.73
2019-05-11T04:10:15.320Z,75.76
2019-05-11T04:12:47.180Z,75.75
2019-05-11T04:15:19.510Z,74.88
2019-05-11T04:17:50.141Z,74.74
2019-05-11T04:20:21.107Z,74.05
2019-05-11T04:22:51.779Z,74.07
2019-05-11T04:25:22.663Z,73.92
2019-05-11T04:27:53.233Z,73.58
2019-05-11T04:30:23.941Z,74.09
2019-05-11T04:32:54.799Z,74.05
2019-05-11T04:35:25.533Z,73.87
2019-05-11T04:37:56.217Z,74.22
2019-05-11T04:40:26.765Z,74.43
2019-05-11T04:42:57.468Z,74.10
2019-05-11T04:45:28.379Z,73.72
2019-05-11T04:47:59.972Z,73.86
2019-05-11T04:50:30.784Z,73.46
2019-05-11T04:53:01.346Z,73.72
2019-05-11T04:55:33.244Z,73.69
2019-05-11T04:58:03.808Z,73.25
2019-05-11T05:00:34.692Z,72.90
2019-05-11T05:03:05.441Z,72.15
2019-05-11T05:05:37.166Z,70.44
2019-05-11T05:08:09.931Z,70.20
2019-05-11T05:10:40.445Z,69.18
2019-05-11T05:13:12.484Z,69.40
2019-05-11T05:15:43.233Z,68.56
2019-05-11T05:18:14.009Z,69.46
2019-05-11T05:20:44.849Z,68.56
2019-05-11T05:23:17.059Z,67.97
2019-05-11T05:25:47.713Z,68.62
2019-05-11T05:28:18.480Z,68.55
2019-05-11T05:30:49.100Z,68.53
2019-05-11T05:33:19.929Z,69.46
2019-05-11T05:35:50.628Z,69.93
2019-05-11T05:38:22.809Z,69.33
2019-05-11T05:40:53.662Z,68.78
2019-05-11T05:43:28.264Z,69.27
2019-05-11T05:45:57.093Z,70.03
2019-05-11T05:48:27.723Z,70.90
2019-05-11T05:50:58.407Z,70.87
2019-05-11T05:53:29.058Z,71.71
2019-05-11T05:55:59.616Z,71.75
2019-05-11T05:58:30.242Z,70.06
2019-05-11T06:01:01.048Z,69.63
2019-05-11T06:03:31.522Z,66.96
2019-05-11T06:06:02.256Z,59.29
2019-05-11T06:08:32.980Z,50.36
2019-05-11T06:11:03.981Z,44.46
2019-05-11T06:13:44.726Z,40.77
2019-05-11T06:16:06.953Z,41.69
2019-05-11T06:18:38.627Z,42.39
2019-05-11T06:21:09.101Z,40.10
2019-05-11T06:23:39.641Z,39.90
2019-05-11T06:26:11.474Z,42.51
2019-05-11T06:28:42.206Z,42.91
2019-05-11T06:31:12.839Z,42.64
2019-05-11T06:33:43.575Z,44.56
2019-05-11T06:36:14.167Z,46.83
2019-05-11T06:38:44.789Z,48.21
2019-05-11T06:41:15.626Z,49.29
2019-05-11T06:44:00.699Z,48.96
2019-05-11T06:46:18.628Z,49.34
2019-05-11T06:48:49.344Z,49.47
2019-05-11T06:51:19.991Z,50.05
2019-05-11T06:53:51.759Z,50.13
2019-05-11T06:56:22.436Z,49.49
2019-05-11T06:58:53.070Z,48.92
2019-05-11T07:01:23.762Z,48.79
2019-05-11T07:03:54.510Z,47.57
2019-05-11T07:06:28.235Z,48.72
2019-05-11T07:08:57.872Z,48.97
2019-05-11T07:11:28.607Z,47.85
2019-05-11T07:14:18.741Z,44.22
2019-05-11T07:16:33.462Z,42.86
2019-05-11T07:19:04.019Z,40.00
2019-05-11T07:21:34.622Z,39.33
2019-05-11T07:24:05.311Z,40.87
2019-05-11T07:26:36.529Z,43.91
2019-05-11T07:29:07.120Z,44.98
2019-05-11T07:31:37.904Z,45.89
2019-05-11T07:34:08.486Z,46.57
2019-05-11T07:36:39.003Z,48.02
2019-05-11T07:39:09.868Z,49.40
2019-05-11T07:41:40.587Z,49.26
2019-05-11T07:44:11.204Z,48.13
2019-05-11T07:46:42.087Z,47.60
2019-05-11T07:49:13.623Z,47.18
2019-05-11T07:51:45.367Z,45.37
2019-05-11T07:54:18.560Z,46.37
2019-05-11T07:56:49.664Z,46.90
2019-05-11T07:59:20.396Z,47.44
2019-05-11T08:01:51.067Z,46.98
2019-05-11T08:04:21.881Z,47.26
2019-05-11T08:06:52.505Z,47.91
2019-05-11T08:09:23.280Z,48.60
2019-05-11T08:11:54.002Z,49.27
2019-05-11T08:14:24.758Z,50.30
2019-05-11T08:16:59.480Z,51.65
2019-05-11T08:19:29.561Z,51.12
2019-05-11T08:22:00.215Z,50.54
2019-05-11T08:24:30.803Z,50.91
2019-05-11T08:27:01.451Z,50.23
2019-05-11T08:29:31.968Z,50.44
2019-05-11T08:32:02.532Z,50.78
2019-05-11T08:34:33.285Z,50.44
2019-05-11T08:37:04.346Z,50.03
2019-05-11T08:39:35.299Z,49.97
2019-05-11T08:42:08.552Z,48.96
2019-05-11T08:44:39.757Z,49.54
2019-05-11T08:47:10.389Z,50.58
2019-05-11T08:49:41.044Z,50.64
2019-05-11T08:52:12.303Z,50.43
2019-05-11T08:54:43.007Z,51.42
2019-05-11T08:57:17.838Z,51.03
2019-05-11T08:59:48.887Z,51.35
2019-05-11T09:02:19.676Z,48.98
2019-05-11T09:04:50.178Z,49.41
2019-05-11T09:07:21.859Z,48.81
2019-05-11T09:09:52.604Z,49.16
2019-05-11T09:12:23.460Z,49.89
2019-05-11T09:14:54.158Z,49.90
2019-05-11T09:17:24.868Z,49.97
2019-05-11T09:19:58.027Z,50.11
2019-05-11T09:22:29.166Z,49.50
2019-05-11T09:24:59.641Z,48.79
2019-05-11T09:27:30.212Z,47.59
2019-05-11T09:30:01.455Z,45.12
2019-05-11T09:32:32.217Z,45.86
2019-05-11T09:35:03.220Z,46.10
2019-05-11T09:37:34.695Z,46.77
2019-05-11T09:40:07.677Z,46.70
2019-05-11T09:42:38.852Z,45.60
2019-05-11T09:45:10.628Z,45.74
2019-05-11T09:47:41.461Z,44.86
2019-05-11T09:50:12.290Z,47.66
2019-05-11T09:52:43.967Z,48.23
2019-05-11T09:55:15.274Z,49.04
2019-05-11T09:57:48.529Z,48.70
2019-05-11T10:00:18.617Z,47.00
2019-05-11T10:02:49.271Z,49.65
2019-05-11T10:05:19.984Z,49.66
2019-05-11T10:07:50.584Z,48.73
2019-05-11T10:10:21.265Z,50.47
2019-05-11T10:12:52.958Z,52.11
2019-05-11T10:15:24.910Z,52.74
2019-05-11T10:17:55.857Z,51.87
2019-05-11T10:20:28.548Z,51.91
2019-05-11T10:22:58.784Z,51.72
2019-05-11T10:25:29.369Z,50.88
2019-05-11T10:27:59.830Z,51.48
2019-05-11T10:30:30.498Z,47.44
2019-05-11T10:33:01.145Z,47.05
2019-05-11T10:35:31.679Z,48.40
2019-05-11T10:38:02.261Z,50.91
2019-05-11T10:40:32.999Z,50.59
2019-05-11T10:43:03.698Z,53.95
2019-05-11T10:45:34.568Z,53.70
2019-05-11T10:48:05.446Z,53.68
2019-05-11T10:50:38.066Z,53.89
2019-05-11T10:53:08.716Z,55.03
2019-05-11T10:55:40.833Z,54.89
2019-05-11T10:58:11.573Z,54.05
2019-05-11T11:00:42.172Z,53.94
2019-05-11T11:03:12.667Z,54.16
2019-05-11T11:05:43.400Z,53.21
2019-05-11T11:08:14.146Z,53.01
2019-05-11T11:10:44.835Z,52.66
2019-05-11T11:13:15.618Z,52.29
2019-05-11T11:15:48.411Z,50.63
2019-05-11T11:18:19.027Z,50.11
2019-05-11T11:20:49.622Z,50.33
2019-05-11T11:23:20.420Z,50.14
2019-05-11T11:25:51.112Z,54.49
2019-05-11T11:28:21.748Z,54.51
2019-05-11T11:30:52.403Z,54.16
2019-05-11T11:33:23.100Z,53.41
2019-05-11T11:35:53.673Z,53.66
2019-05-11T11:38:24.665Z,53.71
2019-05-11T11:40:55.165Z,53.10
2019-05-11T11:43:25.760Z,54.53
2019-05-11T11:45:58.075Z,55.34
2019-05-11T11:48:28.654Z,57.31
2019-05-11T11:50:59.266Z,57.58
2019-05-11T11:53:29.860Z,57.26
2019-05-11T11:56:00.427Z,57.12
2019-05-11T11:58:30.959Z,56.61
2019-05-11T12:01:02.161Z,56.73
2019-05-11T12:03:33.020Z,56.19
2019-05-11T12:06:03.789Z,56.34
2019-05-11T12:08:35.657Z,56.14
2019-05-11T12:11:07.929Z,56.61
2019-05-11T12:13:38.838Z,56.64
2019-05-11T12:16:09.691Z,57.67
2019-05-11T12:18:40.488Z,58.64
2019-05-11T12:21:15.061Z,61.64
2019-05-11T12:23:48.253Z,66.41
2019-05-11T12:26:18.057Z,68.05
2019-05-11T12:28:49.144Z,69.88
2019-05-11T12:31:20.137Z,70.86
2019-05-11T12:33:50.424Z,70.29
2019-05-11T12:36:20.806Z,72.05
2019-05-11T12:38:51.148Z,69.92
2019-05-11T12:41:21.432Z,67.90
2019-05-11T12:43:52.186Z,68.26
2019-05-11T12:46:22.463Z,67.37
2019-05-11T12:48:52.830Z,66.54
2019-05-11T12:51:23.147Z,67.56
2019-05-11T12:53:53.432Z,67.46
2019-05-11T12:56:24.745Z,68.04
2019-05-11T12:58:55.126Z,67.78
2019-05-11T13:01:25.493Z,65.59
2019-05-11T13:03:57.897Z,63.71
2019-05-11T13:06:28.112Z,65.15
2019-05-11T13:08:58.840Z,64.55
2019-05-11T13:11:29.268Z,63.90
2019-05-11T13:13:59.635Z,64.55
2019-05-11T13:16:30.021Z,64.37
2019-05-11T13:19:00.311Z,62.73
2019-05-11T13:21:30.679Z,63.14
2019-05-11T13:24:01.097Z,62.09
2019-05-11T13:26:31.469Z,61.54
2019-05-11T13:29:02.267Z,60.96
2019-05-11T13:31:32.588Z,62.25
2019-05-11T13:34:02.895Z,69.21
2019-05-11T13:36:33.264Z,72.52
2019-05-11T13:39:05.191Z,77.78
2019-05-11T13:41:38.200Z,80.39
2019-05-11T13:44:08.579Z,82.21
2019-05-11T13:46:39.210Z,84.22
2019-05-11T13:49:28.290Z,86.47
2019-05-11T13:51:58.898Z,86.71
2019-05-11T13:54:29.804Z,87.34
2019-05-11T13:57:00.287Z,87.84
2019-05-11T13:59:30.703Z,89.10
2019-05-11T14:02:01.509Z,89.05
2019-05-11T14:04:31.872Z,89.89
2019-05-11T14:07:02.370Z,90.85
2019-05-11T14:09:32.672Z,89.47
2019-05-11T14:12:03.100Z,89.43
2019-05-11T14:14:33.526Z,90.09
2019-05-11T14:17:04.053Z,89.54
2019-05-11T14:19:34.752Z,90.29
2019-05-11T14:22:05.456Z,89.73
2019-05-11T14:24:37.612Z,90.56
2019-05-11T14:27:10.576Z,90.00
2019-05-11T14:29:41.192Z,90.49
2019-05-11T14:32:12.412Z,89.51
2019-05-11T14:34:43.365Z,89.18
2019-05-11T14:37:15.361Z,89.29
2019-05-11T14:39:48.076Z,88.58
2019-05-11T14:42:22.171Z,88.32
2019-05-11T14:44:50.860Z,87.67
2019-05-11T14:47:21.615Z,88.47
2019-05-11T14:49:52.216Z,86.56
2019-05-11T14:52:22.936Z,86.57
2019-05-11T14:54:53.757Z,85.53
2019-05-11T14:57:24.616Z,82.86
2019-05-11T14:59:58.461Z,81.14
2019-05-11T15:02:49.360Z,82.18
2019-05-11T15:05:21.648Z,83.78
2019-05-11T15:07:53.137Z,82.90
2019-05-11T15:10:23.820Z,83.30
2019-05-11T15:12:55.034Z,84.47
2019-05-11T15:15:27.953Z,83.20
2019-05-11T15:17:58.814Z,83.30
2019-05-11T15:20:29.557Z,83.98
2019-05-11T15:23:00.308Z,84.16
2019-05-11T15:25:31.260Z,82.55
2019-05-11T15:28:01.940Z,81.78
2019-05-11T15:30:32.870Z,82.00
2019-05-11T15:33:03.517Z,81.64
2019-05-11T15:35:34.174Z,82.02
2019-05-11T15:38:04.849Z,83.28
2019-05-11T15:40:35.639Z,79.69
2019-05-11T15:43:08.530Z,82.46
2019-05-11T15:45:38.565Z,81.07
2019-05-11T15:48:09.452Z,76.68
2019-05-11T15:50:41.962Z,79.52
2019-05-11T15:53:14.533Z,79.84
2019-05-11T15:55:45.089Z,81.30
2019-05-11T15:58:19.118Z,81.78
2019-05-11T16:00:49.362Z,82.15
2019-05-11T16:03:20.050Z,82.82
2019-05-11T16:05:50.657Z,82.31
2019-05-11T16:08:21.272Z,83.12
2019-05-11T16:10:51.682Z,81.90
2019-05-11T16:13:22.003Z,81.70
2019-05-11T16:15:52.319Z,82.53
2019-05-11T16:18:22.696Z,82.74
2019-05-11T16:20:53.000Z,81.40
2019-05-11T16:23:23.321Z,82.34
2019-05-11T16:25:53.678Z,82.42
2019-05-11T16:28:24.010Z,81.45
2019-05-11T16:30:54.301Z,81.17
2019-05-11T16:33:24.747Z,81.90
2019-05-11T16:35:55.066Z,83.02
2019-05-11T16:38:25.374Z,83.56
2019-05-11T16:40:55.759Z,83.63
2019-05-11T16:43:27.987Z,83.10
2019-05-11T16:45:58.640Z,83.14
2019-05-11T16:48:29.015Z,84.11
2019-05-11T16:50:59.328Z,84.46
2019-05-11T16:53:29.641Z,84.58
2019-05-11T16:56:00.432Z,84.12
2019-05-11T16:58:31.019Z,82.53
2019-05-11T17:01:01.322Z,82.20
2019-05-11T17:03:31.888Z,81.15
2019-05-11T17:06:02.138Z,82.13
2019-05-11T17:08:32.424Z,80.31
2019-05-11T17:11:03.088Z,81.19
2019-05-11T17:13:37.755Z,83.17
2019-05-11T17:16:08.624Z,83.49
2019-05-11T17:18:39.661Z,83.99
2019-05-11T17:21:09.925Z,83.83
2019-05-11T17:23:40.839Z,84.03
2019-05-11T17:26:12.740Z,84.03
2019-05-11T17:28:43.435Z,83.54
2019-05-11T17:31:14.022Z,83.41
2019-05-11T17:33:44.740Z,83.82
2019-05-11T17:36:15.638Z,84.12
2019-05-11T17:38:47.956Z,83.77
2019-05-11T17:41:21.262Z,83.90
2019-05-11T17:43:52.058Z,84.09
2019-05-11T17:46:22.715Z,84.13
2019-05-11T17:48:53.322Z,84.39
2019-05-11T17:51:25.315Z,84.76
2019-05-11T17:53:55.987Z,84.41
2019-05-11T17:56:27.963Z,84.43
2019-05-11T17:58:58.707Z,84.38
2019-05-11T18:01:29.307Z,84.98
2019-05-11T18:04:03.638Z,84.59
2019-05-11T18:06:34.480Z,85.25
2019-05-11T18:09:08.414Z,85.37
2019-05-11T18:11:39.276Z,85.74
2019-05-11T18:14:13.029Z,85.89
2019-05-11T18:16:43.853Z,85.90
2019-05-11T18:19:14.571Z,86.15
2019-05-11T18:21:45.502Z,86.21
2019-05-11T18:24:17.896Z,86.03
2019-05-11T18:26:48.785Z,85.48
2019-05-11T18:29:19.639Z,85.55
2019-05-11T18:31:50.375Z,85.54
2019-05-11T18:34:21.573Z,85.37
2019-05-11T18:36:53.738Z,85.34
2019-05-11T18:39:24.440Z,85.25
2019-05-11T18:41:55.069Z,85.13
2019-05-11T18:44:25.953Z,85.06
2019-05-11T18:46:59.108Z,85.05
2019-05-11T18:49:29.279Z,84.66
2019-05-11T18:51:59.917Z,85.31
2019-05-11T18:54:30.470Z,85.46
2019-05-11T18:57:01.405Z,86.12
2019-05-11T18:59:31.760Z,85.86
2019-05-11T19:02:02.172Z,85.89
2019-05-11T19:04:32.782Z,85.88
2019-05-11T19:07:14.239Z,85.59
2019-05-11T19:09:37.453Z,85.54
2019-05-11T19:12:08.537Z,85.72
2019-05-11T19:14:39.209Z,85.90
2019-05-11T19:17:09.558Z,86.11
2019-05-11T19:19:40.120Z,86.32
2019-05-11T19:22:10.429Z,86.17
2019-05-11T19:24:41.686Z,86.30
2019-05-11T19:27:12.115Z,86.24
2019-05-11T19:29:42.824Z,85.89
2019-05-11T19:32:13.169Z,85.71
2019-05-11T19:34:43.602Z,85.78
2019-05-11T19:37:13.912Z,85.76
2019-05-11T19:39:47.678Z,85.66
2019-05-11T19:42:17.840Z,85.59
2019-05-11T19:44:48.301Z,85.21
2019-05-11T19:47:18.598Z,85.12
2019-05-11T19:49:49.191Z,85.13
2019-05-11T19:52:19.499Z,85.11
2019-05-11T19:54:50.536Z,84.60
2019-05-11T19:57:21.309Z,84.61
2019-05-11T19:59:51.649Z,84.14
2019-05-11T20:02:21.997Z,84.04
2019-05-11T20:04:52.321Z,84.58
2019-05-11T20:07:22.686Z,84.27
2019-05-11T20:09:53.018Z,83.91
2019-05-11T20:12:23.390Z,83.58
2019-05-11T20:14:53.910Z,83.90
2019-05-11T20:17:24.355Z,83.55
2019-05-11T20:19:54.735Z,83.21
2019-05-11T20:22:25.152Z,82.56
2019-05-11T20:24:55.537Z,82.09
2019-05-11T20:27:28.198Z,81.89
2019-05-11T20:29:58.249Z,82.01
2019-05-11T20:32:28.662Z,81.97
2019-05-11T20:34:59.236Z,81.71
2019-05-11T20:37:29.626Z,81.29
2019-05-11T20:39:59.986Z,81.12
2019-05-11T20:42:30.381Z,81.45
2019-05-11T20:45:00.741Z,81.07
2019-05-11T20:47:31.062Z,81.06
2019-05-11T20:50:01.391Z,80.82
2019-05-11T20:52:31.690Z,80.61
2019-05-11T20:55:01.969Z,81.21
2019-05-11T20:57:32.351Z,80.89
2019-05-11T21:00:02.635Z,80.83
2019-05-11T21:02:32.936Z,80.59
2019-05-11T21:05:03.467Z,80.53
2019-05-11T21:07:35.306Z,80.04
2019-05-11T21:10:08.724Z,80.35
2019-05-11T21:12:39.283Z,80.14
2019-05-11T21:15:10.212Z,80.05
2019-05-11T21:17:40.666Z,79.83
2019-05-11T21:20:11.166Z,80.51
2019-05-11T21:22:41.463Z,81.04
2019-05-11T21:25:11.824Z,81.45
2019-05-11T21:27:42.249Z,81.31
2019-05-11T21:30:14.443Z,81.93
2019-05-11T21:32:44.847Z,81.76
2019-05-11T21:35:15.149Z,82.09
2019-05-11T21:37:45.559Z,82.03
2019-05-11T21:40:15.982Z,81.53
2019-05-11T21:42:47.617Z,81.47
2019-05-11T21:45:18.571Z,81.06
2019-05-11T21:47:49.269Z,80.69
2019-05-11T21:50:19.641Z,80.65
2019-05-11T21:52:49.946Z,81.11
2019-05-11T21:55:20.290Z,81.22
2019-05-11T21:57:50.616Z,80.92
2019-05-11T22:00:21.820Z,80.65
2019-05-11T22:02:52.353Z,80.43
2019-05-11T22:05:22.635Z,80.63
2019-05-11T22:07:52.943Z,80.43
2019-05-11T22:10:23.333Z,80.19
2019-05-11T22:12:53.791Z,80.26
2019-05-11T22:15:24.599Z,80.12
2019-05-11T22:17:54.969Z,80.17
2019-05-11T22:20:25.277Z,80.08
2019-05-11T22:23:03.764Z,79.83
2019-05-11T22:25:34.350Z,79.81
2019-05-11T22:28:05.164Z,79.98
2019-05-11T22:30:35.878Z,80.26
2019-05-11T22:33:08.598Z,80.58
2019-05-11T22:35:39.580Z,81.82
2019-05-11T22:38:10.234Z,81.65
2019-05-11T22:40:41.101Z,81.92
2019-05-11T22:43:12.228Z,82.11
2019-05-11T22:45:42.796Z,82.49
2019-05-11T22:48:14.051Z,82.78
2019-05-11T22:50:44.740Z,82.86
2019-05-11T22:53:18.774Z,82.85
2019-05-11T22:55:48.917Z,82.58
2019-05-11T22:58:19.625Z,82.66
2019-05-11T23:00:50.246Z,82.70
2019-05-11T23:03:22.756Z,82.66
2019-05-11T23:05:53.032Z,82.77
2019-05-11T23:08:23.948Z,82.87
2019-05-11T23:10:55.604Z,82.46
2019-05-11T23:13:27.941Z,82.36
2019-05-11T23:15:58.518Z,82.16
2019-05-11T23:18:29.353Z,82.17
2019-05-11T23:21:00.034Z,82.06
2019-05-11T23:23:31.611Z,82.13
2019-05-11T23:26:02.655Z,82.10
2019-05-11T23:28:33.196Z,82.22
2019-05-11T23:31:03.992Z,82.69
2019-05-11T23:33:34.730Z,82.52
2019-05-11T23:36:07.669Z,82.83
2019-05-11T23:38:38.796Z,82.93
2019-05-11T23:41:23.416Z,82.98
2019-05-11T23:43:43.217Z,83.13
2019-05-11T23:46:14.334Z,83.37
2019-05-11T23:48:44.989Z,83.60
2019-05-11T23:51:18.002Z,83.81
2019-05-11T23:53:48.154Z,83.96
2019-05-11T23:56:18.863Z,83.77
2019-05-11T23:58:49.778Z,83.54
